Time;durP1;ratioP1;P1;durP2;ratioP2;P2;SDS_P1;SDS_P2;PMS_P1;PMS_P2;Temp;Humidity;BMP_temperature;BMP_pressure;BME280_temperature;BME280_humidity;BME280_pressure;Samples;Min_cycle;Max_cycle;Signal;HPM_P1;HPM_P2
2021/05/20 00:01:25;;;;;;;1.47;1.10;;;;;;;6.19;100.00;94146.91;5074687;28;20202;-76
2021/05/20 00:03:51;;;;;;;0.90;0.90;;;;;;;6.20;100.00;94142.56;5074723;28;20566;-77
2021/05/20 00:06:17;;;;;;;1.33;1.00;;;;;;;6.18;100.00;94139.31;5074638;28;20202;-77
2021/05/20 00:08:43;;;;;;;1.20;1.10;;;;;;;6.06;100.00;94144.84;5074701;28;20281;-76
2021/05/20 00:11:09;;;;;;;1.30;1.03;;;;;;;6.01;100.00;94144.53;5074622;28;20235;-77
2021/05/20 00:13:35;;;;;;;1.33;1.00;;;;;;;5.96;100.00;94144.19;5074756;28;20221;-77
2021/05/20 00:16:02;;;;;;;3.40;1.00;;;;;;;5.79;100.00;94138.16;5074655;28;20240;-77
2021/05/20 00:18:28;;;;;;;3.60;1.00;;;;;;;5.60;100.00;94143.69;5074581;28;20202;-77
2021/05/20 00:20:54;;;;;;;3.90;1.13;;;;;;;5.40;100.00;94141.38;5074398;28;20574;-77
2021/05/20 00:23:20;;;;;;;2.33;1.27;;;;;;;5.27;100.00;94147.03;5074032;28;20780;-76
2021/05/20 00:25:46;;;;;;;1.30;1.17;;;;;;;5.07;100.00;94151.66;5074340;28;20210;-76
2021/05/20 00:28:11;;;;;;;1.40;0.90;;;;;;;4.90;100.00;94144.81;5073842;28;20271;-76
2021/05/20 00:30:37;;;;;;;1.47;1.10;;;;;;;4.77;100.00;94146.06;5074024;28;20222;-76
2021/05/20 00:33:04;;;;;;;1.90;1.07;;;;;;;4.69;100.00;94140.84;5074110;28;20248;-76
2021/05/20 00:35:30;;;;;;;1.60;1.10;;;;;;;4.56;100.00;94149.06;5074110;28;20198;-76
2021/05/20 00:37:56;;;;;;;2.33;1.40;;;;;;;4.53;100.00;94146.78;5073883;28;20601;-76
2021/05/20 00:40:22;;;;;;;1.20;1.00;;;;;;;4.36;100.00;94143.25;5073853;28;20210;-76
2021/05/20 00:42:48;;;;;;;2.17;1.13;;;;;;;4.22;100.00;94143.84;5074121;28;20206;-77
2021/05/20 00:45:15;;;;;;;1.13;1.00;;;;;;;4.13;100.00;94153.31;5073955;28;20225;-77
2021/05/20 00:47:41;;;;;;;4.00;1.13;;;;;;;4.26;100.00;94155.50;5073835;28;20205;-77
2021/05/20 00:50:10;;;;;;;1.17;1.03;;;;;;;4.24;100.00;94150.47;5073661;28;20202;-76
2021/05/20 00:52:38;;;;;;;3.50;1.00;;;;;;;4.17;100.00;94149.47;5073614;28;20199;-77
2021/05/20 00:55:06;;;;;;;1.60;1.13;;;;;;;4.20;100.00;94143.19;5073638;28;20252;-77
2021/05/20 00:57:33;;;;;;;1.37;0.90;;;;;;;4.17;100.00;94139.13;5073763;28;20250;-77
2021/05/20 01:00:05;;;;;;;2.00;1.17;;;;;;;4.21;100.00;94145.63;5073693;28;20195;-76
2021/05/20 01:02:31;;;;;;;0.93;0.90;;;;;;;4.18;100.00;94145.09;5073706;28;20217;-77
2021/05/20 01:04:57;;;;;;;0.90;0.90;;;;;;;4.16;100.00;94157.38;5073601;28;20199;-76
2021/05/20 01:07:24;;;;;;;1.33;1.00;;;;;;;4.13;100.00;94155.91;5073429;28;20209;-76
2021/05/20 01:09:50;;;;;;;1.30;1.20;;;;;;;4.15;100.00;94159.16;5073642;28;20206;-76
2021/05/20 01:12:16;;;;;;;1.90;0.90;;;;;;;4.17;100.00;94153.84;5073312;28;20265;-77
2021/05/20 01:14:43;;;;;;;1.30;1.20;;;;;;;4.24;100.00;94160.00;5073252;28;20199;-76
2021/05/20 01:17:10;;;;;;;1.30;1.10;;;;;;;4.34;100.00;94165.88;5073249;28;20209;-76
2021/05/20 01:19:36;;;;;;;2.53;1.10;;;;;;;4.42;100.00;94160.75;5073191;28;20269;-77
2021/05/20 01:22:04;;;;;;;2.80;1.30;;;;;;;4.50;100.00;94167.75;5072977;28;20234;-76
2021/05/20 01:24:30;;;;;;;5.67;1.00;;;;;;;4.40;100.00;94167.84;5073460;28;20211;-76
2021/05/20 01:26:56;;;;;;;1.00;0.90;;;;;;;4.43;100.00;94174.50;5073305;28;20206;-76
2021/05/20 01:29:22;;;;;;;1.67;1.20;;;;;;;4.45;100.00;94168.22;5073172;28;20199;-76
2021/05/20 01:31:48;;;;;;;1.07;0.97;;;;;;;4.44;100.00;94171.75;5073108;28;20249;-77
2021/05/20 01:34:14;;;;;;;3.53;1.03;;;;;;;4.52;100.00;94162.44;5075366;28;20198;-76
2021/05/20 01:36:40;;;;;;;4.50;1.00;;;;;;;4.61;100.00;94166.66;5073230;28;20210;-75
2021/05/20 01:39:07;;;;;;;1.13;0.87;;;;;;;4.72;100.00;94169.00;5072536;28;20218;-76
2021/05/20 01:41:33;;;;;;;2.67;1.10;;;;;;;4.85;100.00;94175.53;5072992;28;20225;-76
2021/05/20 01:43:59;;;;;;;7.57;1.23;;;;;;;4.94;100.00;94172.78;5073059;28;20673;-78
2021/05/20 01:46:25;;;;;;;0.97;0.80;;;;;;;4.99;100.00;94170.53;5072977;28;20205;-77
2021/05/20 01:48:53;;;;;;;0.83;0.83;;;;;;;5.06;100.00;94169.94;5072837;28;20539;-77
2021/05/20 01:51:22;;;;;;;2.87;1.17;;;;;;;5.06;100.00;94168.16;5073022;28;20279;-75
2021/05/20 01:53:49;;;;;;;2.30;1.27;;;;;;;5.06;100.00;94175.09;5072986;28;20202;-76
2021/05/20 01:56:18;;;;;;;2.50;1.10;;;;;;;5.07;100.00;94180.13;5072891;28;20202;-76
2021/05/20 01:58:44;;;;;;;2.13;1.00;;;;;;;5.14;100.00;94178.53;5072904;28;20221;-76
2021/05/20 02:01:11;;;;;;;2.50;1.30;;;;;;;5.05;100.00;94179.47;5072751;28;20214;-75
2021/05/20 02:03:37;;;;;;;3.17;1.33;;;;;;;5.12;100.00;94177.88;5072785;28;20199;-76
2021/05/20 02:06:04;;;;;;;2.60;0.93;;;;;;;5.23;100.00;94184.56;5072673;28;20684;-77
2021/05/20 02:08:31;;;;;;;5.33;1.03;;;;;;;5.30;100.00;94176.97;5072857;28;20198;-76
2021/05/20 02:10:58;;;;;;;1.10;1.00;;;;;;;5.28;100.00;94184.06;5072710;28;20272;-76
2021/05/20 02:13:25;;;;;;;0.83;0.80;;;;;;;5.23;100.00;94181.97;5072739;28;20202;-76
2021/05/20 02:15:52;;;;;;;2.47;1.10;;;;;;;5.23;100.00;94175.97;5072517;28;20198;-76
2021/05/20 02:18:18;;;;;;;2.53;1.03;;;;;;;5.22;100.00;94184.72;5072789;28;20209;-76
2021/05/20 02:20:44;;;;;;;1.37;1.00;;;;;;;5.26;100.00;94178.25;5072569;28;20666;-76
2021/05/20 02:23:11;;;;;;;2.50;1.27;;;;;;;5.30;100.00;94182.94;5072476;28;20234;-76
2021/05/20 02:25:37;;;;;;;2.27;1.10;;;;;;;5.31;100.00;94188.94;5072626;28;20199;-76
2021/05/20 02:28:04;;;;;;;1.40;1.23;;;;;;;5.28;100.00;94184.06;5072469;28;20715;-76
2021/05/20 02:30:31;;;;;;;3.13;1.20;;;;;;;5.24;100.00;94187.94;5072410;28;20237;-75
2021/05/20 02:32:57;;;;;;;1.63;1.10;;;;;;;5.23;100.00;94181.13;5072750;28;20248;-75
2021/05/20 02:35:23;;;;;;;4.23;1.03;;;;;;;5.24;100.00;94178.38;5072427;28;20252;-76
2021/05/20 02:37:49;;;;;;;1.00;0.90;;;;;;;5.24;100.00;94182.78;5072387;28;20662;-76
2021/05/20 02:40:17;;;;;;;4.20;1.23;;;;;;;5.22;100.00;94176.94;5072514;28;20211;-76
2021/05/20 02:42:43;;;;;;;1.47;1.20;;;;;;;5.21;100.00;94178.69;5072406;28;20210;-76
2021/05/20 02:45:14;;;;;;;1.87;1.00;;;;;;;5.24;100.00;94182.78;5072507;28;20641;-76
2021/05/20 02:47:41;;;;;;;2.23;1.50;;;;;;;5.24;100.00;94182.78;5072561;28;20195;-75
2021/05/20 02:50:08;;;;;;;2.80;1.10;;;;;;;5.23;100.00;94175.97;5072275;28;20665;-76
2021/05/20 02:52:34;;;;;;;4.23;1.40;;;;;;;5.17;100.00;94182.59;5075733;28;20230;-76
2021/05/20 02:55:02;;;;;;;3.40;1.20;;;;;;;5.19;100.00;94178.84;5076131;28;20257;-76
2021/05/20 02:57:29;;;;;;;1.60;1.20;;;;;;;5.19;100.00;94193.59;5075852;28;20649;-76
2021/05/20 02:59:55;;;;;;;4.00;1.17;;;;;;;5.22;100.00;94188.09;5075869;28;20243;-76
2021/05/20 03:02:21;;;;;;;1.57;1.27;;;;;;;5.28;100.00;94184.06;5075890;28;20666;-76
2021/05/20 03:04:51;;;;;;;3.50;1.20;;;;;;;5.29;100.00;94196.84;5075976;28;20203;-77
2021/05/20 03:07:17;;;;;;;1.30;1.20;;;;;;;5.33;100.00;94190.41;5075741;28;20688;-77
2021/05/20 03:09:43;;;;;;;1.47;1.37;;;;;;;5.35;100.00;94191.03;5075774;28;20203;-76
2021/05/20 03:12:10;;;;;;;1.43;1.20;;;;;;;5.42;100.00;94196.41;5075522;28;20325;-75
2021/05/20 03:14:36;;;;;;;0.83;0.83;;;;;;;5.45;100.00;94188.31;5075810;28;20293;-75
2021/05/20 03:17:09;;;;;;;4.47;1.20;;;;;;;5.48;100.00;94193.19;5075555;28;20224;-76
2021/05/20 03:19:35;;;;;;;1.10;0.93;;;;;;;5.50;100.00;94190.44;5075704;28;20210;-76
2021/05/20 03:22:02;;;;;;;1.07;0.97;;;;;;;5.44;100.00;94188.47;5075382;28;20640;-76
2021/05/20 03:24:28;;;;;;;1.57;1.10;;;;;;;5.38;100.00;94187.34;5075503;28;20569;-76
2021/05/20 03:26:54;;;;;;;1.17;0.90;;;;;;;5.33;100.00;94187.81;5075293;28;20214;-75
2021/05/20 03:29:20;;;;;;;1.10;1.00;;;;;;;5.33;100.00;94195.56;5075358;28;20199;-75
2021/05/20 03:31:46;;;;;;;1.60;1.00;;;;;;;5.36;100.00;94197.03;5075344;28;20226;-76
2021/05/20 03:34:12;;;;;;;2.60;2.27;;;;;;;5.32;100.00;94200.91;5075415;28;20199;-77
2021/05/20 03:36:38;;;;;;;2.60;1.20;;;;;;;5.28;100.00;94194.41;5075597;28;20195;-76
2021/05/20 03:39:07;;;;;;;0.90;0.83;;;;;;;5.29;100.00;94198.63;5077281;28;20257;-76
2021/05/20 03:41:33;;;;;;;1.10;0.87;;;;;;;5.29;100.00;94196.03;5075150;28;20214;-76
2021/05/20 03:43:59;;;;;;;1.33;0.97;;;;;;;5.31;100.00;94194.09;5075318;28;20569;-76
2021/05/20 03:46:25;;;;;;;1.20;0.87;;;;;;;5.34;100.00;94198.97;5075231;28;20594;-76
2021/05/20 03:48:51;;;;;;;0.83;0.83;;;;;;;5.41;100.00;94199.16;5075120;28;20203;-76
2021/05/20 03:51:17;;;;;;;1.07;0.80;;;;;;;5.40;100.00;94200.94;5075029;28;20604;-76
2021/05/20 03:53:43;;;;;;;0.93;0.87;;;;;;;5.42;100.00;94206.75;5074996;28;20581;-76
2021/05/20 03:56:10;;;;;;;1.43;1.00;;;;;;;5.45;100.00;94209.03;5074927;28;20202;-76
2021/05/20 03:58:38;;;;;;;1.10;0.70;;;;;;;5.47;100.00;94209.69;5075340;28;20206;-76
2021/05/20 04:01:04;;;;;;;2.63;1.50;;;;;;;5.50;100.00;94214.56;5074977;28;20279;-76
2021/05/20 04:03:31;;;;;;;2.40;1.33;;;;;;;5.54;100.00;94222.81;5073740;28;20665;-76
2021/05/20 04:05:59;;;;;;;1.57;1.13;;;;;;;5.47;100.00;94221.81;5074699;28;20195;-77
2021/05/20 04:08:25;;;;;;;2.20;1.00;;;;;;;5.45;100.00;94224.56;5074572;28;20256;-76
2021/05/20 04:10:52;;;;;;;1.10;1.00;;;;;;;5.47;100.00;94221.81;5074767;28;20261;-75
2021/05/20 04:13:28;;;;;;;0.87;0.70;;;;;;;5.50;100.00;94224.09;5074714;28;20210;-77
2021/05/20 04:15:55;;;;;;;1.20;1.00;;;;;;;5.45;100.00;94221.19;5074565;28;20650;-77
2021/05/20 04:18:20;;;;;;;1.00;0.90;;;;;;;5.46;100.00;94231.38;5074522;28;20203;-76
2021/05/20 04:20:47;;;;;;;3.37;1.30;;;;;;;5.42;100.00;94227.47;5074514;28;20551;-76
2021/05/20 04:23:13;;;;;;;2.17;1.13;;;;;;;5.51;100.00;94234.31;5074003;28;20231;-76
2021/05/20 04:25:39;;;;;;;1.97;1.30;;;;;;;5.60;100.00;94229.16;5074278;28;20205;-76
2021/05/20 04:28:05;;;;;;;2.40;1.40;;;;;;;5.59;100.00;94238.69;5074309;28;20234;-77
2021/05/20 04:30:32;;;;;;;2.80;1.40;;;;;;;5.59;100.00;94243.06;5074295;28;20236;-76
2021/05/20 04:32:58;;;;;;;2.70;1.20;;;;;;;5.61;100.00;94241.91;5074069;28;20199;-77
2021/05/20 04:35:24;;;;;;;2.80;1.30;;;;;;;5.70;100.00;94242.78;5073994;28;20680;-77
2021/05/20 04:37:52;;;;;;;1.60;1.20;;;;;;;5.75;100.00;94235.31;5074000;28;20279;-77
2021/05/20 04:40:18;;;;;;;4.47;0.90;;;;;;;5.74;100.00;94231.94;5073931;28;20209;-77
2021/05/20 04:42:44;;;;;;;1.20;1.00;;;;;;;5.73;100.00;94229.50;5074116;28;20206;-76
2021/05/20 04:45:12;;;;;;;2.73;1.07;;;;;;;5.83;100.00;94234.50;5073795;28;20237;-76
2021/05/20 04:47:38;;;;;;;13.07;1.40;;;;;;;6.01;100.00;94242.19;5073856;28;20561;-76
2021/05/20 04:50:06;;;;;;;1.13;1.00;;;;;;;6.09;100.00;94230.03;5073690;28;20203;-76
2021/05/20 04:52:32;;;;;;;1.23;0.80;;;;;;;6.17;100.00;94237.00;5073684;28;20692;-77
2021/05/20 04:54:58;;;;;;;1.97;1.10;;;;;;;6.24;100.00;94235.38;5073690;28;20231;-76
2021/05/20 04:57:24;;;;;;;0.80;0.80;;;;;;;6.35;100.00;94239.44;5073622;28;20332;-76
2021/05/20 04:59:51;;;;;;;2.00;0.93;;;;;;;6.43;100.00;94242.03;5073687;28;20195;-76
2021/05/20 05:02:17;;;;;;;1.30;1.20;;;;;;;6.31;100.00;94240.72;5073580;28;20199;-77
2021/05/20 05:04:44;;;;;;;1.57;1.20;;;;;;;6.28;100.00;94249.66;5073291;28;20625;-77
2021/05/20 05:07:10;;;;;;;1.90;1.30;;;;;;;6.26;100.00;94249.00;5071854;28;20658;-77
2021/05/20 05:09:36;;;;;;;1.50;1.03;;;;;;;6.31;100.00;94248.50;5071967;28;20266;-76
2021/05/20 05:12:02;;;;;;;2.33;1.20;;;;;;;6.36;100.00;94253.22;5072574;28;20733;-76
2021/05/20 05:14:28;;;;;;;1.87;1.40;;;;;;;6.34;100.00;94250.78;5073010;28;20260;-76
2021/05/20 05:16:54;;;;;;;1.90;1.20;;;;;;;6.50;100.00;94249.97;5073053;28;20608;-76
2021/05/20 05:19:20;;;;;;;2.37;1.20;;;;;;;6.78;100.00;94250.41;5072915;28;20576;-76
2021/05/20 05:21:47;;;;;;;1.87;1.40;;;;;;;7.03;100.00;94253.78;5073089;28;20562;-76
2021/05/20 05:24:13;;;;;;;1.20;1.10;;;;;;;7.32;100.00;94257.56;5073316;28;20202;-77
2021/05/20 05:26:39;;;;;;;1.47;1.10;;;;;;;7.50;100.00;94253.94;5072824;28;20195;-76
2021/05/20 05:29:06;;;;;;;1.10;0.90;;;;;;;7.56;100.00;94251.47;5073055;28;20213;-77
2021/05/20 05:31:33;;;;;;;1.00;1.00;;;;;;;7.22;100.00;94254.34;5073051;28;20257;-77
2021/05/20 05:33:59;;;;;;;1.00;0.90;;;;;;;7.36;100.00;94258.84;5073035;28;20245;-77
2021/05/20 05:36:25;;;;;;;0.97;0.93;;;;;;;7.67;100.00;94255.47;5075627;28;20248;-75
2021/05/20 05:38:52;;;;;;;1.53;0.93;;;;;;;8.00;100.00;94254.47;5072904;28;20202;-77
2021/05/20 05:41:18;;;;;;;1.80;1.07;;;;;;;8.26;100.00;94260.13;5073079;28;20199;-76
2021/05/20 05:43:45;;;;;;;2.17;1.07;;;;;;;8.10;100.00;94260.25;5072988;28;20241;-77
2021/05/20 05:46:11;;;;;;;0.70;0.70;;;;;;;7.94;100.00;94271.56;5072932;28;20224;-77
2021/05/20 05:48:37;;;;;;;1.37;0.80;;;;;;;8.11;100.00;94267.06;5072782;28;20195;-77
2021/05/20 05:51:06;;;;;;;1.30;0.70;;;;;;;7.89;100.00;94273.84;5072947;28;20218;-76
2021/05/20 05:53:32;;;;;;;0.60;0.60;;;;;;;8.04;100.00;94269.53;5073003;28;20202;-77
2021/05/20 05:55:59;;;;;;;1.00;0.90;;;;;;;9.29;100.00;94276.13;5072770;28;20676;-77
2021/05/20 05:58:26;;;;;;;0.97;0.87;;;;;;;10.44;100.00;94269.47;5072929;28;20194;-76
2021/05/20 06:00:52;;;;;;;1.13;0.80;;;;;;;10.61;93.43;94266.56;5072708;28;20201;-76
2021/05/20 06:03:18;;;;;;;1.33;1.00;;;;;;;10.35;96.31;94273.16;5073150;28;20203;-76
2021/05/20 06:05:47;;;;;;;0.77;0.60;;;;;;;10.63;91.63;94270.59;5072705;28;20194;-76
2021/05/20 06:08:13;;;;;;;0.90;0.90;;;;;;;10.78;95.25;94269.72;5072871;28;20199;-76
2021/05/20 06:10:38;;;;;;;2.77;0.70;;;;;;;10.96;91.18;94270.06;5072688;28;20198;-77
2021/05/20 06:13:06;;;;;;;1.00;0.90;;;;;;;10.28;93.35;94272.28;5072800;28;20539;-75
2021/05/20 06:15:31;;;;;;;1.57;0.70;;;;;;;9.94;94.90;94277.16;5072607;28;20202;-76
2021/05/20 06:17:57;;;;;;;1.17;0.50;;;;;;;9.66;100.00;94276.19;5072518;28;20681;-76
2021/05/20 06:20:23;;;;;;;2.00;0.70;;;;;;;9.01;100.00;94281.16;5070915;28;20214;-76
2021/05/20 06:22:49;;;;;;;1.90;0.90;;;;;;;8.52;100.00;94285.00;5071550;28;20705;-76
2021/05/20 06:25:16;;;;;;;0.50;0.50;;;;;;;8.30;100.00;94284.00;5072574;28;20688;-77
2021/05/20 06:27:42;;;;;;;0.63;0.57;;;;;;;8.29;100.00;94284.97;5076517;28;20225;-76
2021/05/20 06:30:09;;;;;;;1.20;0.80;;;;;;;8.15;100.00;94289.16;5076416;28;20206;-77
2021/05/20 06:32:36;;;;;;;1.33;1.00;;;;;;;7.95;100.00;94291.38;5076464;28;20233;-77
2021/05/20 06:35:03;;;;;;;0.80;0.77;;;;;;;8.11;100.00;94290.47;5076681;28;20202;-76
2021/05/20 06:37:29;;;;;;;0.60;0.60;;;;;;;7.88;100.00;94303.44;5076536;28;20206;-76
2021/05/20 06:39:55;;;;;;;1.07;0.70;;;;;;;7.93;100.00;94296.75;5076426;28;20222;-76
2021/05/20 06:42:21;;;;;;;0.80;0.80;;;;;;;7.94;100.00;94297.56;5076292;28;20685;-77
2021/05/20 06:44:47;;;;;;;0.73;0.60;;;;;;;8.18;100.00;94300.97;5076119;28;20213;-75
2021/05/20 06:47:14;;;;;;;1.27;0.80;;;;;;;8.60;100.00;94297.16;5076408;28;20669;-76
2021/05/20 06:49:40;;;;;;;2.67;0.93;;;;;;;9.03;100.00;94305.25;5076132;28;20658;-76
2021/05/20 06:52:06;;;;;;;1.73;0.90;;;;;;;9.30;100.00;94306.41;5075925;28;20312;-75
2021/05/20 06:54:33;;;;;;;1.63;0.80;;;;;;;8.78;100.00;94310.66;5075969;28;20654;-75
2021/05/20 06:57:02;;;;;;;1.63;0.97;;;;;;;8.93;100.00;94302.09;5075995;28;20252;-75
2021/05/20 07:02:12;;;;;;;0.90;0.90;;;;;;;8.96;100.00;94305.13;5076024;28;20205;-75
2021/05/20 07:04:39;;;;;;;1.33;1.10;;;;;;;9.61;100.00;94306.25;5075879;28;20198;-78
2021/05/20 07:07:06;;;;;;;1.90;0.90;;;;;;;9.54;100.00;94318.38;5075796;28;20198;-75
2021/05/20 07:09:33;;;;;;;0.67;0.60;;;;;;;9.21;100.00;94316.13;5075680;28;20568;-75
2021/05/20 07:12:07;;;;;;;1.23;0.90;;;;;;;8.80;100.00;94313.91;5075682;28;20249;-76
2021/05/20 07:14:33;;;;;;;0.70;0.67;;;;;;;8.49;100.00;94319.19;5075848;28;20199;-77
2021/05/20 07:16:59;;;;;;;0.87;0.87;;;;;;;8.57;100.00;94313.91;5075574;28;20199;-76
2021/05/20 07:19:26;;;;;;;0.77;0.70;;;;;;;8.85;100.00;94311.56;5075541;28;20662;-76
2021/05/20 07:21:53;;;;;;;1.40;1.00;;;;;;;8.99;100.00;94306.56;5075228;28;20231;-77
2021/05/20 07:24:19;;;;;;;1.40;0.63;;;;;;;8.98;100.00;94310.97;5075457;28;20199;-76
2021/05/20 07:26:46;;;;;;;1.17;1.00;;;;;;;9.20;100.00;94318.91;5075581;28;20228;-78
2021/05/20 07:29:12;;;;;;;0.77;0.77;;;;;;;9.35;100.00;94318.91;5075454;28;20199;-79
2021/05/20 07:31:39;;;;;;;0.93;0.83;;;;;;;9.65;100.00;94326.75;5075302;28;20230;-77
2021/05/20 07:34:05;;;;;;;1.00;0.77;;;;;;;9.55;97.85;94319.19;5077814;28;20195;-77
2021/05/20 07:36:31;;;;;;;0.77;0.77;;;;;;;10.29;100.00;94319.06;5075159;28;20199;-77
2021/05/20 07:38:58;;;;;;;0.90;0.80;;;;;;;11.42;95.16;94303.53;5073940;28;20201;-78
2021/05/20 07:41:26;;;;;;;0.80;0.80;;;;;;;11.69;92.96;94314.13;5075203;28;20810;-77
2021/05/20 07:43:52;;;;;;;0.70;0.70;;;;;;;11.13;89.93;94319.44;5075284;28;20203;-77
2021/05/20 07:46:18;;;;;;;2.40;1.00;;;;;;;9.73;96.26;94318.81;5075012;28;20202;-77
2021/05/20 07:48:44;;;;;;;0.80;0.80;;;;;;;9.10;99.67;94324.38;5075534;28;20206;-75
2021/05/20 07:51:12;;;;;;;1.33;1.00;;;;;;;8.83;100.00;94329.16;5074973;28;20231;-76
2021/05/20 07:53:39;;;;;;;1.00;0.90;;;;;;;8.37;100.00;94333.56;5075064;28;20202;-78
2021/05/20 07:56:07;;;;;;;1.10;1.00;;;;;;;8.44;100.00;94329.31;5075135;28;20199;-77
2021/05/20 07:58:33;;;;;;;1.70;1.03;;;;;;;8.31;100.00;94332.44;5075039;28;20577;-78
2021/05/20 08:01:02;;;;;;;0.83;0.83;;;;;;;8.69;100.00;94332.53;5074695;28;20207;-76
2021/05/20 08:03:30;;;;;;;1.48;0.90;;;;;;;9.30;100.00;94329.88;5074085;28;20489;-78
2021/05/20 08:06:02;;;;;;;1.60;1.10;;;;;;;10.04;96.62;94323.00;5074603;28;20309;-77
2021/05/20 08:08:33;;;;;;;1.43;1.00;;;;;;;10.23;94.75;94330.22;5074543;28;20230;-76
2021/05/20 08:11:02;;;;;;;1.60;0.97;;;;;;;10.57;91.84;94333.22;5074733;28;20207;-77
2021/05/20 08:13:30;;;;;;;1.53;1.20;;;;;;;11.06;90.41;94325.41;5074565;28;20199;-76
2021/05/20 08:15:56;;;;;;;1.23;1.07;;;;;;;11.09;87.08;94330.25;5074548;28;20203;-76
2021/05/20 08:18:22;;;;;;;1.47;0.70;;;;;;;10.65;87.24;94327.88;5074499;28;20553;-76
2021/05/20 08:20:53;;;;;;;0.60;0.57;;;;;;;10.70;89.71;94338.56;5074278;28;20673;-76
2021/05/20 08:23:22;;;;;;;3.87;1.03;;;;;;;10.33;89.42;94322.16;5074217;28;20233;-76
2021/05/20 08:25:48;;;;;;;1.87;0.87;;;;;;;9.90;89.68;94320.22;5074240;28;20206;-75
2021/05/20 08:28:14;;;;;;;1.63;0.90;;;;;;;9.80;89.98;94325.72;5074399;28;20607;-76
2021/05/20 08:30:41;;;;;;;0.73;0.73;;;;;;;9.45;92.44;94327.28;5074255;28;20203;-76
2021/05/20 08:33:08;;;;;;;1.60;1.00;;;;;;;9.24;97.36;94326.19;5073982;28;20229;-76
2021/05/20 08:35:34;;;;;;;1.47;1.20;;;;;;;9.45;99.46;94327.28;5074317;28;20286;-76
2021/05/20 08:38:00;;;;;;;1.53;1.27;;;;;;;9.03;96.64;94331.28;5074225;28;20206;-76
2021/05/20 08:40:26;;;;;;;1.20;1.10;;;;;;;8.82;99.13;94331.94;5074084;28;20214;-75
2021/05/20 08:42:53;;;;;;;1.20;1.10;;;;;;;8.85;100.00;94337.59;5074044;28;20203;-76
2021/05/20 08:45:22;;;;;;;2.50;1.10;;;;;;;9.20;99.13;94327.53;5073928;28;20195;-76
2021/05/20 08:47:50;;;;;;;1.40;1.30;;;;;;;9.17;97.52;94327.06;5073654;28;20546;-77
2021/05/20 08:50:19;;;;;;;3.63;1.33;;;;;;;9.35;100.00;94337.16;5073526;28;20583;-75
2021/05/20 08:52:45;;;;;;;1.77;1.27;;;;;;;9.47;99.05;94335.72;5073695;28;20277;-75
2021/05/20 08:55:13;;;;;;;2.23;1.50;;;;;;;9.45;100.00;94335.09;5073654;28;20203;-76
2021/05/20 08:57:39;;;;;;;2.97;1.50;;;;;;;9.73;99.92;94330.06;5073736;28;20198;-75
2021/05/20 09:00:09;;;;;;;2.27;1.50;;;;;;;9.93;99.17;94326.88;5073480;28;20206;-77
2021/05/20 09:02:35;;;;;;;3.00;1.40;;;;;;;10.04;95.02;94325.59;5073470;28;20744;-77
2021/05/20 09:05:09;;;;;;;2.13;1.40;;;;;;;10.45;98.90;94317.25;5073865;28;20205;-76
2021/05/20 09:07:37;;;;;;;1.37;1.27;;;;;;;10.73;92.15;94315.50;5073664;28;20216;-75
2021/05/20 09:10:20;;;;;;;2.43;1.30;;;;;;;11.39;96.09;94309.16;5073534;28;20203;-75
2021/05/20 09:12:48;;;;;;;1.40;1.30;;;;;;;12.15;91.96;94308.28;5073261;28;20238;-75
2021/05/20 09:15:23;;;;;;;2.13;1.20;;;;;;;12.43;87.07;94315.22;5073518;28;20199;-74
2021/05/20 09:17:51;;;;;;;1.87;1.13;;;;;;;12.48;83.18;94315.44;5073386;28;20230;-75
2021/05/20 09:20:21;;;;;;;1.80;1.20;;;;;;;12.39;80.91;94309.59;5073412;28;20203;-76
2021/05/20 09:23:01;;;;;;;0.80;0.80;;;;;;;12.05;78.45;94302.63;5073068;28;20237;-75
2021/05/20 09:25:30;;;;;;;1.27;0.80;;;;;;;11.50;76.31;94301.75;5072127;28;20572;-76
2021/05/20 09:27:56;;;;;;;1.13;0.87;;;;;;;12.05;81.08;94317.53;5073148;28;20673;-76
2021/05/20 09:30:24;;;;;;;1.57;1.07;;;;;;;11.22;76.19;94299.97;5073187;28;20199;-76
2021/05/20 09:32:53;;;;;;;3.03;1.00;;;;;;;11.61;79.10;94306.44;5073155;28;20317;-76
2021/05/20 09:35:22;;;;;;;1.33;1.00;;;;;;;11.25;82.91;94307.44;5073135;28;20201;-75
2021/05/20 09:37:51;;;;;;;1.87;1.40;;;;;;;10.89;84.54;94305.75;5072949;28;20210;-77
2021/05/20 09:40:19;;;;;;;1.63;1.20;;;;;;;11.55;84.07;94307.22;5075414;28;20657;-78
2021/05/20 09:42:46;;;;;;;2.70;1.00;;;;;;;12.32;77.21;94305.31;5072913;28;20563;-78
2021/05/20 09:45:17;;;;;;;3.60;1.30;;;;;;;12.88;81.41;94297.13;5072875;28;20244;-77
2021/05/20 09:47:43;;;;;;;1.10;1.00;;;;;;;13.32;74.96;94298.38;5073061;28;20289;-77
2021/05/20 09:50:12;;;;;;;2.60;1.07;;;;;;;13.19;73.97;94300.16;5072791;28;20654;-77
2021/05/20 09:52:39;;;;;;;0.87;0.87;;;;;;;12.74;76.30;94300.78;5072668;28;20279;-77
2021/05/20 09:55:23;;;;;;;2.73;0.97;;;;;;;11.15;76.24;94306.97;5072956;28;20207;-76
2021/05/20 09:57:51;;;;;;;3.53;1.00;;;;;;;10.62;78.25;94313.38;5072942;28;20230;-77
2021/05/20 10:00:19;;;;;;;2.10;1.30;;;;;;;10.57;80.12;94317.56;5071843;28;20666;-76
2021/05/20 10:02:46;;;;;;;1.40;1.00;;;;;;;10.34;83.94;94311.53;5072453;28;20205;-77
2021/05/20 10:05:24;;;;;;;1.03;0.90;;;;;;;10.34;80.22;94314.13;5072927;28;20281;-76
2021/05/20 10:07:55;;;;;;;1.00;0.90;;;;;;;10.72;84.34;94303.44;5072921;28;20202;-76
2021/05/20 10:10:22;;;;;;;2.07;0.83;;;;;;;11.24;77.71;94290.97;5072844;28;20567;-76
2021/05/20 10:12:48;;;;;;;0.67;0.67;;;;;;;11.91;82.01;94293.09;5072566;28;20581;-77
2021/05/20 10:15:17;;;;;;;0.70;0.70;;;;;;;12.23;74.34;94293.44;5072495;28;20203;-76
2021/05/20 10:17:44;;;;;;;1.83;0.80;;;;;;;12.51;75.86;94288.06;5072506;28;20654;-76
2021/05/20 10:20:12;;;;;;;1.40;0.70;;;;;;;12.18;62.78;94297.44;5072642;28;20283;-76
2021/05/20 10:22:39;;;;;;;1.03;0.60;;;;;;;12.23;63.62;94293.44;5072486;28;20234;-77
2021/05/20 10:25:07;;;;;;;1.67;0.70;;;;;;;13.67;69.55;94292.84;5072647;28;20209;-76
2021/05/20 10:27:36;;;;;;;1.90;0.70;;;;;;;14.58;68.14;94284.94;5072573;28;20195;-76
2021/05/20 10:30:05;;;;;;;0.50;0.50;;;;;;;14.89;61.89;94288.56;5072716;28;20252;-76
2021/05/20 10:32:32;;;;;;;1.37;0.50;;;;;;;14.11;63.79;94287.81;5072310;28;20693;-77
2021/05/20 10:34:59;;;;;;;1.07;0.60;;;;;;;13.20;64.64;94292.06;5072360;28;20658;-77
2021/05/20 10:37:28;;;;;;;3.17;1.00;;;;;;;13.14;65.50;94295.53;5072595;28;20249;-76
2021/05/20 10:39:54;;;;;;;0.77;0.70;;;;;;;13.32;68.21;94282.63;5072480;28;20195;-76
2021/05/20 10:42:34;;;;;;;0.90;0.80;;;;;;;13.19;64.61;94287.88;5072344;28;20199;-77
2021/05/20 10:45:17;;;;;;;0.80;0.80;;;;;;;12.63;71.15;94288.28;5072233;28;20203;-77
2021/05/20 10:48:21;;;;;;;1.33;0.90;;;;;;;12.79;75.37;94295.75;5072511;28;20199;-77
2021/05/20 10:51:16;;;;;;;3.30;1.27;;;;;;;12.56;72.83;94283.03;5072203;28;20198;-75
2021/05/20 10:54:07;;;;;;;2.03;1.10;;;;;;;13.22;70.70;94284.84;5072258;28;20453;-76
2021/05/20 10:56:55;;;;;;;3.03;1.00;;;;;;;14.32;68.91;94284.09;5072370;28;20203;-77
2021/05/20 10:59:46;;;;;;;3.53;1.00;;;;;;;14.88;65.17;94277.25;5072416;28;20558;-77
2021/05/20 11:02:45;;;;;;;0.83;0.70;;;;;;;15.89;63.42;94270.03;5072303;28;20195;-76
2021/05/20 11:05:54;;;;;;;1.88;0.50;;;;;;;15.31;63.28;94263.31;5072093;28;20561;-77
2021/05/20 11:08:54;;;;;;;1.02;0.68;;;;;;;14.67;56.76;94280.25;5072202;28;20198;-76
2021/05/20 11:11:21;;;;;;;0.75;0.75;;;;;;;14.04;65.29;94273.94;5010184;28;20232;-76
2021/05/20 11:13:47;;;;;;;1.97;0.90;;;;;;;13.61;67.28;94270.03;5013682;28;20200;-76
2021/05/20 11:16:15;;;;;;;0.70;0.70;;;;;;;13.27;68.19;94263.22;5041108;28;20731;-76
2021/05/20 11:18:49;;;;;;;0.97;0.70;;;;;;;12.67;68.09;94279.00;5075754;28;20195;-76
2021/05/20 11:24:17;;;;;;;1.43;0.60;;;;;;;13.25;64.88;94270.50;5075142;28;20207;-76
2021/05/20 11:26:51;;;;;;;5.10;0.80;;;;;;;13.15;63.38;94265.66;5075596;28;20206;-76
2021/05/20 11:29:17;;;;;;;0.60;0.60;;;;;;;13.91;63.04;94263.47;5075550;28;20213;-76
2021/05/20 11:31:48;;;;;;;0.93;0.60;;;;;;;14.03;61.92;94265.22;5075332;28;20318;-76
2021/05/20 11:37:04;;;;;;;0.80;0.60;;;;;;;12.33;68.26;94263.25;5075493;28;20202;-77
2021/05/20 11:42:10;;;;;;;1.07;0.90;;;;;;;11.15;81.74;94283.44;5064250;28;20206;-77
2021/05/20 11:44:36;;;;;;;1.93;0.80;;;;;;;10.82;83.89;94287.41;5075060;28;20217;-77
2021/05/20 11:47:14;;;;;;;0.97;0.87;;;;;;;10.97;85.50;94279.50;5075256;28;20198;-77
2021/05/20 11:49:42;;;;;;;1.97;1.07;;;;;;;10.58;84.45;94291.25;5075075;28;20198;-75